気象予報士の航空気象 成田空港、霧発生!!

*All archives   *Admin

2009.11.06 (Fri)

成田空港、霧発生!!

成田で霧が発生しています。


正午のMETAR いい天気です。

060300Z 05009KT 010V110 9999 FEW030 19/10 Q1021 BECMG 07008KT


午後6時過ぎから急激に視程が落ち始めました。

061000Z 06008KT 8000 MIFG NSC 15/12 Q1021 BECMG 05006KT RMK A3018

061030Z 04007KT 330V110 7000 MIFG NSC 15/12 Q1021 NOSIG RMK A3017

061048Z 03007KT 360V060 4500 BR NSC 15/13 Q1021 RMK 1SC050 A3017

061100Z 03006KT 320V060 3500 MIFG BR NSC 14/12 Q1022 NOSIG RMK 1SC050 A3018 7000S-SW


午後9時にはRVRが通報されていました。

061200Z 36005KT 2600 R34L/P1800N R34R/0800VP1800D PRFG BR FEW000 13/12 Q1022 NOSIG RMK 1ST000 A3018 7000S FG ON RWY34R AND RWY16L


午後9時からSPECIが連発。

午後10時6分にはかなり落ち込みました。

061306Z 01004KT 2000 R34L/1300VP1800D R34R/0550V1700D BCFG BR FEW000 11/11 Q1022 RMK 2ST000 A3018 4000SW FG ON RWY34R AND RWY16R AND RWY16L


午後11時だったかな。成田空港は騒音対策で閉鎖されると思いますが、閉鎖前に視程が落ちこみ、離着陸に少々支障が出たことでしょう。




ブログランキングに参加しています。
にほんブログ村 環境ブログ 天気・気象学へ
にほんブログ村
応援クリックをおねがします。


以下、アフィリエイトサイトです。





スポンサーサイト
23:45  |  気象・天気  |  TB(0)  |  CM(0)  |  EDIT  |  Top↑

コメントを投稿する


 管理者だけに表示  (非公開コメント投稿可能)

▲PageTop

この記事のトラックバックURL

→http://weathereucalyptus.blog115.fc2.com/tb.php/292-f3cab283
この記事にトラックバックする(FC2ブログユーザー)

この記事へのトラックバック

▲PageTop

 | BLOGTOP |